Time;durP1;ratioP1;P1;durP2;ratioP2;P2;SDS_P1;SDS_P2;PMS_P1;PMS_P2;Temp;Humidity;BMP_temperature;BMP_pressure;BME280_temperature;BME280_humidity;BME280_pressure;Samples;Min_cycle;Max_cycle;Signal;HPM_P1;HPM_P2
2023/01/22 00:01:24;;;;;;;45.50;25.80;;;;;;;3.41;97.53;101689.08;105896;1272;62217;-70
2023/01/22 00:03:53;;;;;;;46.60;26.90;;;;;;;3.39;96.38;101685.50;105948;1270;62095;-71
2023/01/22 00:06:22;;;;;;;44.80;24.70;;;;;;;3.35;96.49;101687.52;105914;1265;61176;-71
2023/01/22 00:08:52;;;;;;;47.80;26.20;;;;;;;3.34;97.64;101688.40;105818;1271;63182;-70
2023/01/22 00:11:21;;;;;;;44.20;25.80;;;;;;;3.44;97.84;101686.77;105913;1264;61470;-70
2023/01/22 00:13:50;;;;;;;44.20;26.40;;;;;;;3.43;97.07;101690.90;105932;1264;60981;-71
2023/01/22 00:16:19;;;;;;;49.00;27.80;;;;;;;3.53;97.38;101693.23;105923;1270;73797;-74
2023/01/22 00:18:48;;;;;;;43.60;26.00;;;;;;;3.54;96.86;101696.81;106031;1271;60676;-76
2023/01/22 00:21:17;;;;;;;42.40;24.10;;;;;;;3.57;96.96;101702.60;105978;1263;70666;-71
2023/01/22 00:23:45;;;;;;;43.80;24.80;;;;;;;3.51;96.78;101704.30;105845;1268;74716;-70
2023/01/22 00:26:16;;;;;;;43.20;25.10;;;;;;;3.47;97.54;101705.09;105863;1264;62264;-70
2023/01/22 00:28:45;;;;;;;37.10;20.90;;;;;;;3.45;96.54;101706.70;105717;1263;59637;-71
2023/01/22 00:31:16;;;;;;;35.40;19.90;;;;;;;3.32;94.88;101708.59;105907;1273;63505;-72
2023/01/22 00:33:46;;;;;;;40.90;21.70;;;;;;;3.07;94.94;101713.19;105924;1265;72302;-72
2023/01/22 00:36:19;;;;;;;46.10;24.10;;;;;;;2.95;95.35;101713.17;105912;1264;60001;-73
2023/01/22 00:38:49;;;;;;;43.10;22.00;;;;;;;2.77;95.99;101711.36;105914;1264;62606;-74
2023/01/22 00:41:19;;;;;;;41.20;21.40;;;;;;;2.69;96.53;101712.76;106014;1263;59096;-74
2023/01/22 00:43:48;;;;;;;41.20;21.40;;;;;;;2.57;97.06;101708.91;106057;1264;57518;-74
2023/01/22 00:46:20;;;;;;;40.60;23.70;;;;;;;2.49;97.72;101710.30;105848;1264;63133;-72
2023/01/22 00:48:49;;;;;;;38.80;21.50;;;;;;;2.60;99.77;101709.69;105942;1265;61267;-73
2023/01/22 00:51:19;;;;;;;41.80;23.50;;;;;;;2.82;100.00;101707.29;105913;1267;71591;-75
2023/01/22 00:53:48;;;;;;;40.80;22.50;;;;;;;2.89;100.00;101712.44;105771;1268;62533;-71
2023/01/22 00:56:17;;;;;;;42.50;22.70;;;;;;;2.91;100.00;101712.73;105890;1264;59133;-71
2023/01/22 00:58:46;;;;;;;44.40;22.90;;;;;;;3.04;100.00;101706.58;106077;1264;59103;-70
2023/01/22 01:01:16;;;;;;;44.00;23.00;;;;;;;3.10;100.00;101710.88;105759;1267;71208;-71
2023/01/22 01:03:45;;;;;;;35.40;19.50;;;;;;;3.18;100.00;101719.99;105856;1264;72446;-70
2023/01/22 01:06:19;;;;;;;38.80;20.80;;;;;;;3.11;98.92;101725.83;105873;1273;69845;-71
2023/01/22 01:08:49;;;;;;;45.20;24.70;;;;;;;2.89;98.49;101715.90;105792;1265;73808;-71
2023/01/22 01:11:21;;;;;;;47.10;26.10;;;;;;;2.78;99.95;101722.52;105684;1267;63161;-71
2023/01/22 01:13:51;;;;;;;41.80;21.70;;;;;;;2.71;100.00;101726.46;105956;1263;59136;-71
2023/01/22 01:16:25;;;;;;;34.20;19.50;;;;;;;2.73;99.96;101725.91;105954;1265;63051;-71
2023/01/22 01:19:04;;;;;;;37.50;21.80;;;;;;;2.66;99.99;101721.95;106104;1264;62188;-71
2023/01/22 01:21:33;;;;;;;32.50;18.60;;;;;;;2.79;100.00;101722.15;106071;1264;70356;-72
2023/01/22 01:24:03;;;;;;;36.70;19.10;;;;;;;2.75;100.00;101730.00;106012;1264;72103;-70
2023/01/22 01:26:34;;;;;;;39.90;20.10;;;;;;;2.63;100.00;101725.98;105985;1264;61436;-73
2023/01/22 01:29:05;;;;;;;37.00;20.10;;;;;;;2.49;100.00;101724.07;105808;1267;59216;-71
2023/01/22 01:31:34;;;;;;;34.60;18.90;;;;;;;2.38;100.00;101722.40;105850;1273;73720;-70
2023/01/22 01:34:04;;;;;;;28.50;14.60;;;;;;;2.33;100.00;101733.02;105882;1265;61741;-72
2023/01/22 01:36:32;;;;;;;30.50;16.70;;;;;;;2.24;100.00;101748.51;105815;1264;70045;-70
2023/01/22 01:39:19;;;;;;;31.70;15.90;;;;;;;2.17;100.00;101745.57;105671;1267;65135;-70
2023/01/22 01:41:49;;;;;;;28.20;17.10;;;;;;;2.12;100.00;101745.98;105790;1266;61978;-70
2023/01/22 01:44:22;;;;;;;27.90;15.40;;;;;;;2.11;100.00;101748.08;105628;1268;57574;-71
2023/01/22 01:47:33;;;;;;;27.20;15.60;;;;;;;2.12;100.00;101744.98;105612;1264;73234;-70
2023/01/22 01:50:02;;;;;;;32.40;16.90;;;;;;;2.20;100.00;101742.91;105743;1263;62442;-69
2023/01/22 01:52:31;;;;;;;27.30;16.70;;;;;;;2.24;100.00;101742.65;105745;1269;59901;-70
2023/01/22 01:55:01;;;;;;;29.10;16.20;;;;;;;2.27;100.00;101743.98;105568;1276;73567;-69
2023/01/22 01:57:33;;;;;;;32.80;18.50;;;;;;;2.26;100.00;101752.23;105713;1267;58854;-69
2023/01/22 02:00:09;;;;;;;30.30;17.70;;;;;;;2.28;100.00;101751.52;105594;1267;61397;-69
2023/01/22 02:02:40;;;;;;;36.00;20.10;;;;;;;2.32;100.00;101746.79;105664;1276;63070;-69
2023/01/22 02:05:10;;;;;;;34.80;19.10;;;;;;;2.63;100.00;101742.82;105596;1267;62922;-70
2023/01/22 02:07:39;;;;;;;37.60;20.50;;;;;;;2.89;100.00;101740.31;105867;1276;59380;-72
2023/01/22 02:10:10;;;;;;;31.00;19.00;;;;;;;2.97;100.00;101738.77;105698;1267;63661;-73
2023/01/22 02:12:39;;;;;;;30.90;18.30;;;;;;;3.08;100.00;101750.34;105760;1267;61480;-73
2023/01/22 02:15:09;;;;;;;30.70;18.30;;;;;;;3.00;100.00;101750.20;105712;1267;60281;-73
2023/01/22 02:17:38;;;;;;;29.60;18.00;;;;;;;3.03;100.00;101748.94;105682;1268;74456;-71
2023/01/22 02:20:09;;;;;;;30.10;19.10;;;;;;;3.07;100.00;101750.38;105797;1263;72013;-71
2023/01/22 02:22:39;;;;;;;33.10;18.50;;;;;;;3.03;100.00;101743.60;106071;1267;59999;-71
2023/01/22 02:25:08;;;;;;;26.50;15.20;;;;;;;3.02;100.00;101747.92;105883;1267;62439;-72
2023/01/22 02:27:38;;;;;;;26.00;15.00;;;;;;;3.01;100.00;101758.11;105760;1268;61495;-70
2023/01/22 02:30:08;;;;;;;29.70;16.90;;;;;;;2.77;100.00;101757.11;105650;1270;60306;-69
2023/01/22 02:32:37;;;;;;;31.20;19.00;;;;;;;2.69;100.00;101759.20;105632;1264;74686;-70
2023/01/22 02:35:07;;;;;;;32.60;18.10;;;;;;;2.97;100.00;101761.13;105696;1264;71846;-70
2023/01/22 02:37:35;;;;;;;32.90;17.90;;;;;;;2.95;100.00;101765.30;105548;1276;70316;-71
2023/01/22 02:40:06;;;;;;;29.70;18.50;;;;;;;3.00;100.00;101766.73;105618;1264;74881;-71
2023/01/22 02:42:35;;;;;;;31.70;17.90;;;;;;;3.01;100.00;101759.31;105684;1267;62213;-73
2023/01/22 02:45:05;;;;;;;29.30;16.80;;;;;;;2.99;100.00;101760.05;105692;1264;59060;-71
2023/01/22 02:47:35;;;;;;;30.40;18.30;;;;;;;3.11;100.00;101757.52;105716;1274;63407;-73
2023/01/22 02:50:07;;;;;;;32.50;19.50;;;;;;;3.23;100.00;101756.02;105711;1264;62685;-72
2023/01/22 02:52:38;;;;;;;32.70;19.80;;;;;;;3.33;100.00;101757.13;105642;1276;59073;-72
2023/01/22 02:55:09;;;;;;;32.30;19.00;;;;;;;3.42;100.00;101757.23;105693;1263;64104;-71
2023/01/22 02:57:39;;;;;;;31.90;18.80;;;;;;;3.51;100.00;101751.86;105636;1268;58757;-71
2023/01/22 03:00:09;;;;;;;32.00;19.00;;;;;;;3.29;100.00;101754.14;105577;1267;59200;-71
2023/01/22 03:02:38;;;;;;;33.70;19.60;;;;;;;3.13;100.00;101753.84;105662;1268;72854;-72
2023/01/22 03:05:08;;;;;;;30.90;19.30;;;;;;;3.06;100.00;101752.30;105715;1267;72559;-70
2023/01/22 03:07:43;;;;;;;33.50;19.30;;;;;;;3.05;100.00;101754.73;105686;1264;70440;-71
2023/01/22 03:10:20;;;;;;;32.70;20.40;;;;;;;3.01;100.00;101756.20;105669;1267;74762;-71
2023/01/22 03:21:19;;;;;;;35.00;19.70;;;;;;;3.19;100.00;101769.88;105483;1270;72013;-71
2023/01/22 03:23:51;;;;;;;;;;;;;;;3.17;100.00;101770.78;105611;1264;70498;-70
2023/01/22 03:26:22;;;;;;;35.80;20.30;;;;;;;3.11;100.00;101770.42;105512;1267;72996;-70
2023/01/22 03:28:51;;;;;;;37.30;20.50;;;;;;;3.05;100.00;101772.30;105492;1264;59273;-71
2023/01/22 03:31:21;;;;;;;40.70;24.10;;;;;;;2.93;100.00;101772.42;105476;1264;61116;-71
2023/01/22 03:33:51;;;;;;;35.10;20.80;;;;;;;2.87;100.00;101771.69;105633;1267;73706;-71
2023/01/22 03:36:20;;;;;;;36.40;20.70;;;;;;;2.82;100.00;101773.85;105588;1276;72094;-70
2023/01/22 03:38:51;;;;;;;38.50;21.80;;;;;;;2.79;100.00;101772.73;105775;1276;59863;-71
2023/01/22 03:41:21;;;;;;;38.10;22.60;;;;;;;2.77;100.00;101769.84;105654;1265;73236;-73
2023/01/22 03:43:52;;;;;;;38.30;21.60;;;;;;;2.85;100.00;101775.69;105679;1266;59206;-70
2023/01/22 03:46:25;;;;;;;37.70;22.50;;;;;;;3.11;100.00;101779.88;105609;1267;60797;-71
2023/01/22 03:48:56;;;;;;;38.90;22.40;;;;;;;3.20;100.00;101775.89;105708;1276;73648;-71
2023/01/22 03:51:26;;;;;;;40.90;23.20;;;;;;;3.35;100.00;101779.98;105620;1268;71501;-70
2023/01/22 03:53:55;;;;;;;39.00;22.90;;;;;;;3.41;100.00;101777.59;105667;1274;69952;-70
2023/01/22 03:56:25;;;;;;;39.50;23.70;;;;;;;3.39;100.00;101778.48;105743;1267;63259;-71
2023/01/22 03:58:58;;;;;;;38.60;21.90;;;;;;;3.51;100.00;101781.64;105735;1274;62559;-70
2023/01/22 04:01:28;;;;;;;37.20;21.50;;;;;;;3.72;100.00;101779.55;105635;1268;59265;-70
2023/01/22 04:03:58;;;;;;;37.20;21.00;;;;;;;3.73;100.00;101781.56;105662;1267;74033;-70
2023/01/22 04:06:29;;;;;;;34.20;19.80;;;;;;;3.73;100.00;101785.70;105611;1270;61065;-73
2023/01/22 04:08:58;;;;;;;31.70;20.00;;;;;;;3.80;100.00;101781.05;105599;1264;70588;-71
2023/01/22 04:11:32;;;;;;;34.00;20.50;;;;;;;3.84;100.00;101778.54;105731;1265;74475;-72
2023/01/22 04:14:01;;;;;;;37.20;20.90;;;;;;;3.73;100.00;101776.92;105796;1266;61341;-71
2023/01/22 04:16:32;;;;;;;37.50;21.20;;;;;;;3.78;100.00;101781.63;105852;1273;59205;-71
2023/01/22 04:19:20;;;;;;;37.60;21.40;;;;;;;3.87;100.00;101779.11;105829;1264;73315;-70
2023/01/22 04:22:04;;;;;;;35.40;22.00;;;;;;;3.97;100.00;101777.64;105802;1265;62659;-69
2023/01/22 04:24:34;;;;;;;35.40;21.60;;;;;;;4.03;100.00;101781.11;105797;1267;59902;-71
2023/01/22 04:27:04;;;;;;;43.00;21.40;;;;;;;4.02;100.00;101783.03;105805;1265;74352;-70
2023/01/22 04:29:33;;;;;;;36.60;20.90;;;;;;;4.00;100.00;101788.08;105748;1267;62183;-71
2023/01/22 04:32:05;;;;;;;36.30;21.80;;;;;;;3.93;100.00;101793.08;105714;1267;59152;-72
2023/01/22 04:34:56;;;;;;;38.40;21.70;;;;;;;3.97;100.00;101788.15;105620;1264;74109;-70
2023/01/22 04:37:51;;;;;;;37.30;21.60;;;;;;;4.07;100.00;101792.71;105811;1266;73773;-71
2023/01/22 04:40:20;;;;;;;38.90;23.70;;;;;;;3.98;100.00;101791.92;105768;1264;71298;-73
2023/01/22 04:42:49;;;;;;;35.90;22.30;;;;;;;3.88;100.00;101796.83;105812;1275;75012;-74
2023/01/22 04:45:19;;;;;;;43.30;24.10;;;;;;;3.97;100.00;101795.23;105810;1270;59180;-72
2023/01/22 04:47:49;;;;;;;39.30;23.40;;;;;;;3.98;100.00;101801.38;105842;1264;59956;-71
2023/01/22 04:50:24;;;;;;;39.20;22.50;;;;;;;4.01;100.00;101805.64;105813;1265;73837;-71
2023/01/22 04:52:55;;;;;;;33.80;20.60;;;;;;;4.02;100.00;101809.73;105772;1264;71921;-70
2023/01/22 04:55:25;;;;;;;33.10;20.70;;;;;;;4.03;100.00;101816.42;105747;1274;70003;-70
2023/01/22 04:58:01;;;;;;;35.00;20.20;;;;;;;4.02;100.00;101819.23;105475;1265;434466;-70
2023/01/22 05:00:30;;;;;;;34.10;21.00;;;;;;;4.11;100.00;101818.63;105747;1264;59131;-70
2023/01/22 05:03:03;;;;;;;34.00;20.00;;;;;;;4.24;100.00;101820.17;105680;1268;59246;-71
2023/01/22 05:05:32;;;;;;;32.00;20.30;;;;;;;4.33;100.00;101812.83;105633;1267;73838;-71
2023/01/22 05:08:02;;;;;;;41.50;25.10;;;;;;;4.38;100.00;101817.86;105729;1267;63461;-72
2023/01/22 05:10:35;;;;;;;45.10;25.20;;;;;;;4.37;100.00;101816.34;105692;1264;70608;-72
2023/01/22 05:13:07;;;;;;;41.20;24.50;;;;;;;4.39;100.00;101817.48;105714;1263;73079;-71
2023/01/22 05:15:37;;;;;;;40.50;24.20;;;;;;;4.36;100.00;101817.91;105720;1263;59176;-72
2023/01/22 05:18:09;;;;;;;46.20;24.80;;;;;;;4.48;100.00;101818.95;105674;1267;61765;-71
2023/01/22 05:20:45;;;;;;;40.60;24.10;;;;;;;4.52;100.00;101827.64;105807;1276;62495;-71
2023/01/22 05:23:14;;;;;;;40.60;23.20;;;;;;;4.44;100.00;101832.52;105713;1267;61758;-73
2023/01/22 05:25:49;;;;;;;43.60;24.40;;;;;;;4.45;100.00;101829.73;105691;1264;71253;-73
2023/01/22 05:28:22;;;;;;;39.40;23.70;;;;;;;4.52;100.00;101839.67;105676;1267;74316;-72
2023/01/22 05:31:10;;;;;;;44.50;23.90;;;;;;;4.62;100.00;101835.59;105816;1265;59107;-73
2023/01/22 05:33:48;;;;;;;39.70;23.00;;;;;;;4.68;100.00;101832.51;105912;1264;59095;-71
2023/01/22 05:36:17;;;;;;;33.70;18.30;;;;;;;4.75;100.00;101841.77;105868;1265;63375;-72
2023/01/22 05:38:46;;;;;;;25.60;13.30;;;;;;;4.71;100.00;101852.79;105737;1268;72364;-72
2023/01/22 05:41:16;;;;;;;33.40;18.60;;;;;;;4.51;100.00;101857.48;105862;1275;60199;-71
2023/01/22 05:43:46;;;;;;;40.00;21.70;;;;;;;4.26;100.00;101865.28;105797;1266;62640;-72
2023/01/22 05:46:20;;;;;;;43.90;24.60;;;;;;;3.94;100.00;101864.59;105996;1271;62631;-72
2023/01/22 05:49:06;;;;;;;44.80;26.20;;;;;;;3.81;100.00;101863.55;105816;1265;59198;-72
2023/01/22 05:51:35;;;;;;;43.10;25.20;;;;;;;3.80;100.00;101856.52;105602;1264;62927;-72
2023/01/22 05:54:05;;;;;;;44.80;23.90;;;;;;;3.85;100.00;101853.98;105789;1265;61562;-72
2023/01/22 05:56:37;;;;;;;41.10;24.60;;;;;;;3.89;100.00;101856.81;105683;1268;59692;-71
2023/01/22 05:59:06;;;;;;;47.10;24.90;;;;;;;3.96;100.00;101864.19;105681;1268;62740;-71
2023/01/22 06:01:35;;;;;;;40.90;23.40;;;;;;;4.14;100.00;101870.27;105929;1264;59045;-72
2023/01/22 06:04:04;;;;;;;37.80;22.80;;;;;;;4.38;100.00;101870.11;105925;1265;59203;-75
2023/01/22 06:06:33;;;;;;;40.90;22.40;;;;;;;4.51;100.00;101878.54;105782;1264;63026;-73
2023/01/22 06:09:03;;;;;;;36.70;22.00;;;;;;;4.61;100.00;101885.67;105684;1275;61734;-72
2023/01/22 06:11:35;;;;;;;39.80;20.80;;;;;;;4.65;100.00;101887.63;105898;1275;69831;-74
2023/01/22 06:14:06;;;;;;;72.50;34.50;;;;;;;4.73;100.00;101889.81;105985;1264;74177;-71
2023/01/22 06:16:35;;;;;;;35.90;19.40;;;;;;;4.85;100.00;101893.45;106063;1267;62742;-72
2023/01/22 06:19:11;;;;;;;40.30;20.00;;;;;;;4.98;100.00;101894.60;106069;1267;57480;-71
2023/01/22 06:21:58;;;;;;;32.00;18.00;;;;;;;5.14;100.00;101900.70;105979;1268;62269;-71
2023/01/22 06:24:32;;;;;;;29.60;16.30;;;;;;;5.21;100.00;101905.98;106044;1275;61546;-71
2023/01/22 06:27:03;;;;;;;25.90;15.40;;;;;;;5.37;100.00;101919.48;106006;1272;59683;-72
2023/01/22 06:29:39;;;;;;;21.70;13.10;;;;;;;5.44;100.00;101913.58;105752;1265;62916;-70
2023/01/22 06:32:08;;;;;;;25.30;13.90;;;;;;;5.49;100.00;101910.44;105680;1265;59188;-71
2023/01/22 06:34:38;;;;;;;23.90;13.20;;;;;;;5.53;100.00;101912.57;105638;1275;62018;-71
2023/01/22 06:37:07;;;;;;;24.00;13.50;;;;;;;5.57;100.00;101911.73;105672;1263;63062;-71
2023/01/22 06:39:38;;;;;;;20.80;11.40;;;;;;;5.61;100.00;101915.60;105651;1264;71458;-70
2023/01/22 06:42:21;;;;;;;22.00;13.50;;;;;;;5.69;100.00;101917.26;105734;1265;70100;-73
2023/01/22 06:44:51;;;;;;;20.50;12.00;;;;;;;5.75;100.00;101923.45;105711;1265;63536;-72
2023/01/22 06:47:21;;;;;;;23.40;11.90;;;;;;;5.84;100.00;101928.15;105661;1264;62355;-76
2023/01/22 06:49:50;;;;;;;21.80;11.80;;;;;;;5.92;100.00;101934.33;105701;1267;62110;-71
2023/01/22 06:52:19;;;;;;;23.50;11.20;;;;;;;5.95;100.00;101930.39;105528;1265;63897;-71
2023/01/22 06:54:48;;;;;;;18.50;10.90;;;;;;;6.00;100.00;101928.88;105511;1267;60897;-74
2023/01/22 06:57:18;;;;;;;20.00;11.50;;;;;;;6.09;100.00;101932.37;105629;1275;60445;-73
2023/01/22 06:59:47;;;;;;;14.80;10.20;;;;;;;6.22;100.00;101936.22;105472;1267;64897;-73
2023/01/22 07:02:18;;;;;;;17.60;9.60;;;;;;;6.22;100.00;101933.98;105755;1265;62719;-74
2023/01/22 07:04:47;;;;;;;15.10;9.20;;;;;;;6.26;100.00;101944.06;105717;1264;61355;-73
2023/01/22 07:07:16;;;;;;;15.60;9.00;;;;;;;6.29;100.00;101951.92;105606;1268;73499;-77
2023/01/22 07:09:45;;;;;;;15.80;9.30;;;;;;;6.35;100.00;101958.29;105640;1267;62010;-74
2023/01/22 07:12:14;;;;;;;13.60;8.20;;;;;;;6.42;100.00;101966.67;105815;1275;69858;-74
2023/01/22 07:14:42;;;;;;;15.00;8.40;;;;;;;6.45;100.00;101965.38;105719;1274;74685;-78
2023/01/22 07:17:11;;;;;;;14.10;8.50;;;;;;;6.45;100.00;101965.55;105613;1267;62053;-72
2023/01/22 07:19:40;;;;;;;14.50;8.10;;;;;;;6.44;100.00;101964.70;105493;1267;59190;-76
2023/01/22 07:22:09;;;;;;;22.80;9.30;;;;;;;6.49;100.00;101962.63;105665;1268;73983;-74
2023/01/22 07:24:39;;;;;;;12.60;8.40;;;;;;;6.55;100.00;101967.41;105673;1265;61078;-72
2023/01/22 07:27:08;;;;;;;15.30;8.60;;;;;;;6.57;100.00;101970.98;105686;1275;59306;-72
2023/01/22 07:29:37;;;;;;;13.90;9.10;;;;;;;6.59;100.00;101972.83;105874;1264;73958;-73
2023/01/22 07:32:06;;;;;;;15.20;9.60;;;;;;;6.63;100.00;101975.64;105740;1265;62998;-73
2023/01/22 07:34:36;;;;;;;19.10;10.20;;;;;;;6.65;100.00;101976.23;105859;1267;62141;-74
2023/01/22 07:37:05;;;;;;;19.90;9.20;;;;;;;6.67;100.00;101977.23;105815;1264;73437;-74
2023/01/22 07:39:34;;;;;;;15.70;8.60;;;;;;;6.66;100.00;101975.67;105726;1265;73034;-76
2023/01/22 07:42:03;;;;;;;14.30;8.90;;;;;;;6.76;100.00;101976.91;105812;1270;60365;-75
2023/01/22 07:44:32;;;;;;;15.60;9.40;;;;;;;6.79;100.00;101979.03;105812;1267;63202;-74
2023/01/22 07:47:01;;;;;;;16.00;9.90;;;;;;;6.80;100.00;101980.02;105942;1264;61558;-74
2023/01/22 07:49:29;;;;;;;15.40;8.80;;;;;;;6.79;100.00;101986.81;105967;1265;61193;-73
2023/01/22 07:51:58;;;;;;;16.50;9.10;;;;;;;6.81;100.00;101992.46;105690;1264;62382;-76
2023/01/22 07:54:27;;;;;;;14.60;9.60;;;;;;;6.84;100.00;101991.85;105824;1265;61540;-75
2023/01/22 07:56:56;;;;;;;18.70;8.80;;;;;;;6.87;100.00;101990.52;105658;1268;59519;-74
2023/01/22 07:59:25;;;;;;;15.30;8.40;;;;;;;6.85;100.00;101991.79;105704;1264;73212;-75
2023/01/22 08:01:54;;;;;;;16.50;9.10;;;;;;;6.89;100.00;101999.79;105745;1267;62590;-73
2023/01/22 08:04:24;;;;;;;13.30;8.70;;;;;;;6.91;100.00;101999.71;105723;1266;59067;-75
2023/01/22 08:06:53;;;;;;;12.70;8.40;;;;;;;6.86;100.00;102001.28;105824;1267;72356;-74
2023/01/22 08:09:23;;;;;;;15.60;9.40;;;;;;;6.86;100.00;102003.02;105834;1267;61886;-74
2023/01/22 08:11:52;;;;;;;12.80;9.20;;;;;;;6.93;100.00;102011.25;105695;1264;69834;-74
2023/01/22 08:14:21;;;;;;;14.80;9.60;;;;;;;7.01;100.00;102012.52;105739;1275;63533;-76
2023/01/22 08:16:50;;;;;;;16.20;8.90;;;;;;;7.08;100.00;102007.23;105947;1271;58254;-76
2023/01/22 08:19:19;;;;;;;16.10;9.20;;;;;;;7.11;100.00;102005.73;106035;1267;59206;-74
2023/01/22 08:21:49;;;;;;;12.30;8.10;;;;;;;7.17;100.00;102009.00;106014;1267;73619;-73
2023/01/22 08:24:17;;;;;;;12.00;8.30;;;;;;;7.17;100.00;102007.58;105773;1263;72643;-72
2023/01/22 08:26:46;;;;;;;13.70;8.10;;;;;;;7.17;100.00;102007.61;105721;1275;70636;-72
2023/01/22 08:29:15;;;;;;;13.00;8.30;;;;;;;7.21;100.00;102010.58;105743;1265;74050;-73
2023/01/22 08:31:45;;;;;;;12.00;8.40;;;;;;;7.25;100.00;102015.44;105750;1265;62109;-73
2023/01/22 08:34:14;;;;;;;15.60;8.00;;;;;;;7.24;100.00;102022.91;105730;1263;57362;-73
2023/01/22 08:36:43;;;;;;;12.60;8.40;;;;;;;7.22;100.00;102024.02;105700;1267;63881;-72
2023/01/22 08:39:12;;;;;;;16.40;8.70;;;;;;;7.29;100.00;102023.78;105670;1267;61209;-75
2023/01/22 08:41:41;;;;;;;16.80;8.60;;;;;;;7.38;100.00;102022.73;105754;1264;71550;-73
2023/01/22 08:44:13;;;;;;;14.20;8.60;;;;;;;7.39;100.00;102027.89;105923;1265;73585;-74
2023/01/22 08:46:42;;;;;;;16.00;8.70;;;;;;;7.42;100.00;102031.09;105742;1267;59187;-71
2023/01/22 08:49:11;;;;;;;12.70;8.80;;;;;;;7.37;100.00;102038.88;105661;1265;60571;-76
2023/01/22 08:51:40;;;;;;;20.50;12.50;;;;;;;7.41;100.00;102041.14;105848;1276;64484;-75
2023/01/22 08:54:10;;;;;;;12.00;7.90;;;;;;;7.50;100.00;102040.16;105834;1264;61052;-74
2023/01/22 08:56:38;;;;;;;13.00;8.00;;;;;;;7.59;100.00;102046.22;105916;1263;71613;-75
2023/01/22 08:59:07;;;;;;;15.40;7.90;;;;;;;7.65;100.00;102039.39;105874;1268;62455;-75
2023/01/22 09:01:36;;;;;;;15.40;8.80;;;;;;;7.62;100.00;102037.59;105920;1267;58388;-76
2023/01/22 09:04:09;;;;;;;12.90;8.40;;;;;;;7.72;100.00;102042.40;105790;1271;59611;-75
2023/01/22 09:06:38;;;;;;;13.70;8.20;;;;;;;7.81;100.00;102045.19;105841;1267;63813;-75
2023/01/22 09:09:07;;;;;;;12.20;7.30;;;;;;;7.85;99.74;102040.34;105688;1267;61077;-77
2023/01/22 09:11:36;;;;;;;11.70;8.20;;;;;;;7.96;99.36;102044.55;106023;1267;60146;-74
2023/01/22 09:14:07;;;;;;;14.80;8.50;;;;;;;8.11;99.22;102050.37;105889;1266;74427;-77
2023/01/22 09:16:38;;;;;;;11.60;7.80;;;;;;;8.19;98.18;102051.80;105757;1264;59177;-75
2023/01/22 09:19:09;;;;;;;15.20;8.30;;;;;;;8.21;97.19;102045.96;105909;1267;59210;-75
2023/01/22 09:21:38;;;;;;;12.60;8.00;;;;;;;8.32;97.02;102051.44;105951;1264;62991;-76
2023/01/22 09:24:08;;;;;;;10.80;7.90;;;;;;;8.42;96.29;102048.46;105924;1265;61741;-75
2023/01/22 09:26:36;;;;;;;10.40;8.00;;;;;;;8.48;95.72;102052.35;105745;1262;69625;-75
2023/01/22 09:29:05;;;;;;;12.20;7.50;;;;;;;8.46;95.37;102054.70;105916;1265;64108;-77
2023/01/22 09:31:36;;;;;;;13.50;7.80;;;;;;;8.51;94.64;102051.52;105755;1275;58177;-75
2023/01/22 09:34:05;;;;;;;15.50;8.40;;;;;;;8.41;94.38;102049.00;105907;1264;61362;-77
2023/01/22 09:36:34;;;;;;;13.10;8.50;;;;;;;8.48;95.42;102052.86;105744;1268;74171;-76
2023/01/22 09:39:03;;;;;;;12.90;8.10;;;;;;;8.54;93.97;102052.61;105864;1267;60705;-77
2023/01/22 09:41:39;;;;;;;12.10;8.30;;;;;;;8.62;93.54;102057.31;105883;1264;70103;-76
2023/01/22 09:44:13;;;;;;;12.90;7.70;;;;;;;8.69;93.11;102060.33;105763;1273;74351;-75
2023/01/22 09:46:56;;;;;;;10.30;7.20;;;;;;;8.66;93.07;102056.96;105661;1275;62990;-75
2023/01/22 09:49:34;;;;;;;12.10;8.20;;;;;;;8.67;92.26;102055.20;105815;1263;61146;-77
2023/01/22 09:52:05;;;;;;;11.00;7.10;;;;;;;8.72;92.20;102057.91;105823;1264;73472;-77
2023/01/22 09:54:34;;;;;;;13.30;7.80;;;;;;;8.71;91.59;102053.98;105966;1264;72158;-75
2023/01/22 09:57:06;;;;;;;14.00;8.20;;;;;;;8.68;91.74;102054.97;105870;1267;69801;-71
2023/01/22 09:59:46;;;;;;;15.20;9.00;;;;;;;8.73;91.53;102053.02;105906;1273;74443;-72
2023/01/22 10:02:40;;;;;;;10.00;7.50;;;;;;;8.87;91.71;102049.84;105748;1265;62148;-73
2023/01/22 10:05:18;;;;;;;14.40;8.20;;;;;;;8.98;89.99;102048.07;105868;1267;59197;-73
2023/01/22 10:08:15;;;;;;;12.40;7.40;;;;;;;9.07;89.16;102048.38;105790;1266;75296;-71
2023/01/22 10:10:44;;;;;;;10.30;7.20;;;;;;;9.14;89.36;102046.69;105628;1268;61596;-75
2023/01/22 10:13:27;;;;;;;11.80;7.70;;;;;;;9.11;88.92;102040.75;105916;1267;60120;-75
2023/01/22 10:15:56;;;;;;;13.90;8.10;;;;;;;9.10;89.03;102048.27;105771;1275;73958;-76
2023/01/22 10:19:00;;;;;;;13.00;8.20;;;;;;;9.13;88.69;102053.69;105726;1268;62352;-76
2023/01/22 10:21:44;;;;;;;12.60;7.40;;;;;;;9.09;88.74;102055.79;105831;1265;59223;-75
2023/01/22 10:24:13;;;;;;;12.60;8.20;;;;;;;9.13;88.53;102052.81;105796;1267;64028;-74
2023/01/22 10:27:15;;;;;;;11.40;7.80;;;;;;;9.19;87.99;102052.34;105708;1264;71377;-75
2023/01/22 10:30:23;;;;;;;16.00;8.00;;;;;;;9.20;87.26;102055.23;105719;1267;60459;-74
2023/01/22 10:33:23;;;;;;;13.70;7.90;;;;;;;9.24;87.80;102053.34;105447;1277;63420;-72
2023/01/22 10:35:55;;;;;;;11.60;7.70;;;;;;;9.34;87.40;102048.77;105537;1275;63659;-72
2023/01/22 10:38:29;;;;;;;11.60;7.90;;;;;;;9.39;86.77;102043.98;105446;1268;59208;-73
2023/01/22 10:41:03;;;;;;;13.60;8.40;;;;;;;9.34;86.54;102040.91;105753;1267;62353;-74
2023/01/22 10:43:38;;;;;;;13.70;8.90;;;;;;;9.28;86.75;102039.45;105733;1266;70665;-74
2023/01/22 10:46:21;;;;;;;17.10;10.70;;;;;;;9.37;86.87;102041.33;105916;1264;72904;-74
2023/01/22 10:49:07;;;;;;;19.90;10.90;;;;;;;9.49;86.68;102039.71;105873;1265;73834;-73
2023/01/22 10:51:41;;;;;;;19.30;12.10;;;;;;;9.66;85.93;102039.27;105690;1263;62992;-74
2023/01/22 10:54:34;;;;;;;18.60;11.40;;;;;;;9.76;85.57;102040.15;105693;1264;61762;-73
2023/01/22 10:57:25;;;;;;;17.90;10.20;;;;;;;9.80;84.77;102042.93;105671;1264;73592;-75
2023/01/22 10:59:57;;;;;;;17.80;10.50;;;;;;;9.72;85.33;102040.16;105875;1263;69844;-72
2023/01/22 11:02:26;;;;;;;15.90;8.80;;;;;;;9.74;85.52;102039.21;105773;1264;70713;-73
2023/01/22 11:05:25;;;;;;;15.90;9.20;;;;;;;9.72;85.59;102041.74;105732;1264;73509;-73
2023/01/22 11:08:05;;;;;;;14.40;8.90;;;;;;;9.82;85.83;102043.50;105782;1267;62733;-70
2023/01/22 11:10:57;;;;;;;14.70;9.20;;;;;;;9.75;85.51;102038.11;105721;1264;60552;-70
2023/01/22 11:13:54;;;;;;;16.10;9.70;;;;;;;9.81;85.38;102040.23;105753;1264;65672;-71
2023/01/22 11:16:27;;;;;;;12.80;8.20;;;;;;;9.95;85.42;102038.39;105798;1273;72282;-73
2023/01/22 11:19:03;;;;;;;16.20;8.30;;;;;;;9.94;85.02;102038.60;105863;1267;68952;-71
2023/01/22 11:21:44;;;;;;;14.00;8.70;;;;;;;9.95;85.60;102035.59;105554;1267;63885;-73
2023/01/22 11:24:35;;;;;;;19.80;8.80;;;;;;;9.96;85.20;102036.95;105690;1267;61928;-73
2023/01/22 11:27:39;;;;;;;14.50;8.40;;;;;;;10.00;85.57;102039.33;105830;1264;60003;-74
2023/01/22 11:30:36;;;;;;;14.70;9.20;;;;;;;10.02;85.03;102041.34;105626;1275;71237;-73
2023/01/22 11:33:15;;;;;;;17.10;9.80;;;;;;;9.85;85.38;102048.23;105896;1265;61016;-71
2023/01/22 11:36:04;;;;;;;14.70;8.60;;;;;;;9.82;85.73;102055.37;105800;1265;59577;-73
2023/01/22 11:39:13;;;;;;;14.60;8.70;;;;;;;9.72;85.84;102052.71;105727;1264;73294;-72
2023/01/22 11:42:04;;;;;;;13.50;8.30;;;;;;;9.73;85.67;102050.56;107928;1263;57310;-72